Time;durP1;ratioP1;P1;durP2;ratioP2;P2;SDS_P1;SDS_P2;PMS_P1;PMS_P2;Temp;Humidity;BMP_temperature;BMP_pressure;BME280_temperature;BME280_humidity;BME280_pressure;Samples;Min_cycle;Max_cycle;Signal;HPM_P1;HPM_P2
2022/03/01 00:00:56;;;;;;;7.83;4.53;;;4.70;99.90;;;;;;5090108;28;20200;-72
2022/03/01 00:03:26;;;;;;;6.20;4.30;;;4.70;99.90;;;;;;5078444;28;20226;-72
2022/03/01 00:05:52;;;;;;;5.53;4.37;;;4.70;99.90;;;;;;5071214;28;20192;-71
2022/03/01 00:08:20;;;;;;;6.20;4.57;;;4.70;99.90;;;;;;5101191;28;20211;-72
2022/03/01 00:10:48;;;;;;;5.90;4.33;;;4.60;99.90;;;;;;5074064;28;20191;-71
2022/03/01 00:13:14;;;;;;;7.17;5.23;;;4.70;99.90;;;;;;5108005;27;20199;-70
2022/03/01 00:15:39;;;;;;;8.53;5.63;;;4.60;99.90;;;;;;5076206;28;20233;-70
2022/03/01 00:18:07;;;;;;;6.73;5.03;;;4.60;99.90;;;;;;5077989;28;20176;-69
2022/03/01 00:20:35;;;;;;;7.30;5.20;;;4.70;99.90;;;;;;5100402;27;20252;-71
2022/03/01 00:23:05;;;;;;;8.33;5.27;;;4.70;99.90;;;;;;5077214;28;20274;-71
2022/03/01 00:25:33;;;;;;;7.97;5.00;;;4.80;99.90;;;;;;5113455;28;20371;-72
2022/03/01 00:27:59;;;;;;;7.03;4.77;;;4.80;99.90;;;;;;5105408;28;20202;-72
2022/03/01 00:30:25;;;;;;;7.20;5.07;;;4.80;99.90;;;;;;5079400;28;20195;-71
2022/03/01 00:32:53;;;;;;;6.80;5.47;;;4.80;99.90;;;;;;5103806;28;20241;-71
2022/03/01 00:35:18;;;;;;;7.13;5.30;;;4.80;99.90;;;;;;5104742;27;20274;-70
2022/03/01 00:37:45;;;;;;;6.90;5.17;;;4.90;99.90;;;;;;5123206;27;20211;-71
2022/03/01 00:40:13;;;;;;;8.50;5.70;;;4.90;99.90;;;;;;5074320;28;20225;-71
2022/03/01 00:42:41;;;;;;;6.93;5.27;;;4.90;99.90;;;;;;5109090;28;20180;-71
2022/03/01 00:45:12;;;;;;;8.07;5.53;;;4.90;99.90;;;;;;5113259;28;20233;-71
2022/03/01 00:47:38;;;;;;;5.90;4.90;;;4.90;99.90;;;;;;5084135;28;20188;-71
2022/03/01 00:50:06;;;;;;;6.70;5.20;;;4.90;99.90;;;;;;5074345;28;20188;-71
2022/03/01 00:52:34;;;;;;;5.77;4.57;;;4.90;99.90;;;;;;5102409;28;20241;-71
2022/03/01 00:55:02;;;;;;;7.90;5.07;;;4.90;99.90;;;;;;5079186;28;20257;-70
2022/03/01 00:57:27;;;;;;;6.73;4.57;;;4.90;99.90;;;;;;5083368;28;20192;-71
2022/03/01 00:59:53;;;;;;;7.27;5.00;;;4.90;99.90;;;;;;5115879;28;20187;-69
2022/03/01 01:02:18;;;;;;;8.37;4.77;;;4.80;99.90;;;;;;5077479;28;20184;-71
2022/03/01 01:04:46;;;;;;;7.47;5.23;;;4.80;99.90;;;;;;5104769;28;20198;-70
2022/03/01 01:07:12;;;;;;;6.47;5.37;;;4.80;99.90;;;;;;5104375;28;22259;-70
2022/03/01 01:09:38;;;;;;;7.07;5.20;;;4.80;99.90;;;;;;5103389;28;20185;-72
2022/03/01 01:12:07;;;;;;;6.87;5.60;;;4.70;99.90;;;;;;5072687;28;20282;-67
2022/03/01 01:14:35;;;;;;;6.40;4.87;;;4.70;99.90;;;;;;5083318;28;20184;-68
2022/03/01 01:17:01;;;;;;;7.00;5.07;;;4.70;99.90;;;;;;5117743;27;20676;-70
2022/03/01 01:19:26;;;;;;;9.43;5.67;;;4.60;99.90;;;;;;5077701;28;20178;-69
2022/03/01 01:24:37;;;;;;;6.93;5.30;;;4.60;99.90;;;;;;5098029;28;20209;-69
2022/03/01 01:27:03;;;;;;;8.30;5.90;;;4.50;99.90;;;;;;5081711;28;20176;-70
2022/03/01 01:29:33;;;;;;;8.13;5.33;;;4.50;99.90;;;;;;5116210;27;20199;-73
2022/03/01 01:32:01;;;;;;;8.43;5.30;;;4.40;99.90;;;;;;5110443;27;20180;-71
2022/03/01 01:34:29;;;;;;;8.60;5.90;;;4.40;99.90;;;;;;5079042;28;20201;-69
2022/03/01 01:36:55;;;;;;;7.17;5.47;;;4.30;99.90;;;;;;5093023;28;20225;-70
2022/03/01 01:39:22;;;;;;;7.33;5.40;;;4.20;99.90;;;;;;5087862;28;20223;-71
2022/03/01 01:41:50;;;;;;;7.17;5.03;;;4.20;99.90;;;;;;5104377;28;20232;-71
2022/03/01 01:44:16;;;;;;;7.63;5.23;;;4.20;99.90;;;;;;5087565;28;20179;-70
2022/03/01 01:46:44;;;;;;;6.90;5.20;;;4.10;99.90;;;;;;5106109;27;20238;-71
2022/03/01 01:49:12;;;;;;;6.80;4.77;;;4.10;99.90;;;;;;5078756;28;20187;-70
2022/03/01 01:51:40;;;;;;;6.90;4.90;;;4.00;99.90;;;;;;5087751;28;20176;-70
2022/03/01 01:54:06;;;;;;;6.13;4.53;;;4.00;99.90;;;;;;5105706;28;20214;-69
2022/03/01 01:56:32;;;;;;;6.17;4.63;;;4.00;99.90;;;;;;5079317;28;20192;-71
2022/03/01 01:59:00;;;;;;;7.10;5.20;;;3.90;99.90;;;;;;5112915;27;20177;-69
2022/03/01 02:01:26;;;;;;;7.47;5.30;;;3.90;99.90;;;;;;5078214;28;20164;-70
2022/03/01 02:03:54;;;;;;;6.70;4.83;;;3.90;99.90;;;;;;5068568;28;20194;-70
2022/03/01 02:06:19;;;;;;;7.70;5.27;;;3.80;99.90;;;;;;5086188;28;20175;-70
2022/03/01 02:08:45;;;;;;;6.17;4.87;;;3.80;99.90;;;;;;5104265;27;20202;-70
2022/03/01 02:11:15;;;;;;;7.10;5.07;;;3.80;99.90;;;;;;5089740;28;20176;-70
2022/03/01 02:13:44;;;;;;;6.57;4.90;;;3.70;99.90;;;;;;5120687;27;20218;-70
2022/03/01 02:16:10;;;;;;;8.00;5.07;;;3.70;99.90;;;;;;5083092;28;20214;-69
2022/03/01 02:18:36;;;;;;;6.27;4.50;;;3.70;99.90;;;;;;5113175;27;20188;-69
2022/03/01 02:21:04;;;;;;;6.00;4.33;;;3.60;99.90;;;;;;5105299;27;20176;-68
2022/03/01 02:23:30;;;;;;;5.67;4.23;;;3.60;99.90;;;;;;5108728;27;20226;-70
2022/03/01 02:26:00;;;;;;;8.37;4.80;;;3.60;99.90;;;;;;5117885;27;20421;-69
2022/03/01 02:28:27;;;;;;;6.50;4.23;;;3.60;99.90;;;;;;5119877;27;20204;-69
2022/03/01 02:30:56;;;;;;;7.07;4.93;;;3.60;99.90;;;;;;5080145;28;20195;-69
2022/03/01 02:33:21;;;;;;;5.70;4.47;;;3.60;99.90;;;;;;5109966;27;20242;-71
2022/03/01 02:35:47;;;;;;;6.10;4.43;;;3.60;99.90;;;;;;5101676;27;20235;-70
2022/03/01 02:38:15;;;;;;;6.37;4.67;;;3.50;99.90;;;;;;5068567;28;20179;-71
2022/03/01 02:40:40;;;;;;;6.27;4.93;;;3.50;99.90;;;;;;5074253;28;20282;-69
2022/03/01 02:43:10;;;;;;;5.33;4.40;;;3.50;99.90;;;;;;5105219;27;20247;-70
2022/03/01 02:45:40;;;;;;;6.07;4.63;;;3.40;99.90;;;;;;5110597;28;20249;-71
2022/03/01 02:48:06;;;;;;;5.20;4.17;;;3.40;99.90;;;;;;5102864;28;20196;-70
2022/03/01 02:50:33;;;;;;;4.73;4.20;;;3.40;99.90;;;;;;5107346;27;20241;-71
2022/03/01 02:53:02;;;;;;;5.43;3.83;;;3.30;99.90;;;;;;5111058;27;20186;-69
2022/03/01 02:55:30;;;;;;;5.43;4.40;;;3.30;99.90;;;;;;5069688;28;20231;-70
2022/03/01 02:57:57;;;;;;;5.90;4.20;;;3.30;99.90;;;;;;5074819;28;20185;-70
2022/03/01 03:00:23;;;;;;;6.10;4.30;;;3.30;99.90;;;;;;5078067;28;20184;-69
2022/03/01 03:02:51;;;;;;;6.60;4.57;;;3.30;99.90;;;;;;5109997;28;20187;-67
2022/03/01 03:05:17;;;;;;;5.80;4.17;;;3.30;99.90;;;;;;5083228;28;20196;-70
2022/03/01 03:07:43;;;;;;;7.57;4.87;;;3.40;99.90;;;;;;5107462;28;20184;-71
2022/03/01 03:10:09;;;;;;;5.73;4.27;;;3.40;99.90;;;;;;5123917;27;20428;-70
2022/03/01 03:12:34;;;;;;;7.87;4.60;;;3.40;99.90;;;;;;5084561;28;20173;-70
2022/03/01 03:15:00;;;;;;;5.63;4.53;;;3.50;99.90;;;;;;5114482;27;20295;-69
2022/03/01 03:17:26;;;;;;;5.70;4.50;;;3.50;99.90;;;;;;5108976;27;20243;-70
2022/03/01 03:19:54;;;;;;;6.77;4.73;;;3.50;99.90;;;;;;5083485;28;20180;-70
2022/03/01 03:22:22;;;;;;;6.30;4.63;;;3.50;99.90;;;;;;5120661;27;20183;-71
2022/03/01 03:24:47;;;;;;;5.57;4.47;;;3.50;99.90;;;;;;5082813;28;20199;-69
2022/03/01 03:27:16;;;;;;;5.80;4.63;;;3.50;99.90;;;;;;5120991;27;20183;-71
2022/03/01 03:29:46;;;;;;;7.00;4.60;;;3.60;99.90;;;;;;5107976;28;20184;-70
2022/03/01 03:32:14;;;;;;;5.93;4.60;;;3.60;99.90;;;;;;5078146;28;20211;-71
2022/03/01 03:34:44;;;;;;;6.60;5.13;;;3.60;99.90;;;;;;5075592;28;20223;-71
2022/03/01 03:37:13;;;;;;;6.73;5.30;;;3.60;99.90;;;;;;5076131;28;20262;-68
2022/03/01 03:39:43;;;;;;;7.30;5.37;;;3.60;99.90;;;;;;5103316;28;20208;-71
2022/03/01 03:42:09;;;;;;;6.57;4.97;;;3.70;99.90;;;;;;5066050;28;20176;-70
2022/03/01 03:44:34;;;;;;;7.83;5.23;;;3.70;99.90;;;;;;5112921;27;20206;-70
2022/03/01 03:47:00;;;;;;;7.13;5.50;;;3.70;99.90;;;;;;5110950;27;20203;-69
2022/03/01 03:49:25;;;;;;;7.37;5.40;;;3.70;99.90;;;;;;5078707;28;20206;-67
2022/03/01 03:51:51;;;;;;;6.83;5.57;;;3.80;99.90;;;;;;5077038;28;20181;-71
2022/03/01 03:54:17;;;;;;;8.90;5.70;;;3.80;99.90;;;;;;5104383;27;20276;-70
2022/03/01 03:56:45;;;;;;;6.97;4.97;;;3.80;99.90;;;;;;5088959;28;20240;-69
2022/03/01 03:59:10;;;;;;;7.20;5.53;;;3.80;99.90;;;;;;5098568;27;20191;-70
2022/03/01 04:01:38;;;;;;;9.40;5.70;;;3.80;99.90;;;;;;5109233;27;20271;-70
2022/03/01 04:04:04;;;;;;;7.57;6.10;;;3.90;99.90;;;;;;5108937;28;20195;-70
2022/03/01 04:06:30;;;;;;;7.17;5.70;;;3.80;99.90;;;;;;5078709;28;20189;-70
2022/03/01 04:08:58;;;;;;;10.03;6.93;;;3.80;99.90;;;;;;5121595;27;20175;-70
2022/03/01 04:11:25;;;;;;;9.10;6.90;;;3.80;99.90;;;;;;5082370;28;20192;-71
2022/03/01 04:13:53;;;;;;;9.77;6.63;;;3.80;99.90;;;;;;5077435;28;20199;-72
2022/03/01 04:16:19;;;;;;;9.43;6.83;;;3.80;99.90;;;;;;5094255;28;20195;-69
2022/03/01 04:18:47;;;;;;;11.43;7.40;;;3.80;99.90;;;;;;5077823;28;20251;-70
2022/03/01 04:21:16;;;;;;;10.43;7.20;;;3.80;99.90;;;;;;5109108;27;20206;-69
2022/03/01 04:23:42;;;;;;;11.00;7.13;;;3.80;99.90;;;;;;5075285;28;20241;-70
2022/03/01 04:26:12;;;;;;;11.57;7.07;;;3.70;99.90;;;;;;5081809;28;20172;-70
2022/03/01 04:28:38;;;;;;;10.37;6.97;;;3.70;99.90;;;;;;5102070;27;20361;-70
2022/03/01 04:31:03;;;;;;;9.37;6.73;;;3.70;99.90;;;;;;5081306;28;20183;-70
2022/03/01 04:33:29;;;;;;;8.73;6.70;;;3.70;99.90;;;;;;5101134;28;20240;-71
2022/03/01 04:35:58;;;;;;;9.63;6.87;;;3.70;99.90;;;;;;5111053;27;20203;-69
2022/03/01 04:38:26;;;;;;;9.80;6.63;;;3.70;99.90;;;;;;5109368;28;20233;-70
2022/03/01 04:40:52;;;;;;;10.70;7.30;;;3.70;99.90;;;;;;5102453;28;20266;-69
2022/03/01 04:43:19;;;;;;;10.60;6.80;;;3.70;99.90;;;;;;5070694;28;20214;-70
2022/03/01 04:45:45;;;;;;;8.87;6.60;;;3.70;99.90;;;;;;5073955;28;20187;-70
2022/03/01 04:48:11;;;;;;;8.57;6.33;;;3.70;99.90;;;;;;5071795;28;20176;-70
2022/03/01 04:50:37;;;;;;;7.70;5.90;;;3.70;99.90;;;;;;5094746;28;20199;-71
2022/03/01 04:53:03;;;;;;;8.03;6.47;;;3.60;99.90;;;;;;5073875;28;20258;-70
2022/03/01 04:55:29;;;;;;;8.60;6.37;;;3.70;99.90;;;;;;5107921;28;20279;-70
2022/03/01 04:57:54;;;;;;;10.93;7.13;;;3.60;99.90;;;;;;5073509;28;20187;-70
2022/03/01 05:00:23;;;;;;;8.80;6.50;;;3.60;99.90;;;;;;5076745;28;20192;-71
2022/03/01 05:02:48;;;;;;;8.33;6.83;;;3.60;99.90;;;;;;5114430;28;20245;-69
2022/03/01 05:05:15;;;;;;;8.63;6.50;;;3.60;99.90;;;;;;5072168;28;20191;-68
2022/03/01 05:07:43;;;;;;;10.20;6.13;;;3.60;99.90;;;;;;5091901;28;20200;-68
2022/03/01 05:10:17;;;;;;;8.13;5.80;;;3.50;99.90;;;;;;5073015;28;20240;-68
2022/03/01 05:12:48;;;;;;;7.67;5.50;;;3.50;99.90;;;;;;5080073;28;20176;-70
2022/03/01 05:15:15;;;;;;;8.60;5.57;;;3.50;99.90;;;;;;5114124;28;20267;-70
2022/03/01 05:17:43;;;;;;;7.97;6.47;;;3.50;99.90;;;;;;5102883;28;20260;-69
2022/03/01 05:20:10;;;;;;;7.40;5.70;;;3.60;99.90;;;;;;5104715;28;20173;-70
2022/03/01 05:22:39;;;;;;;9.97;6.67;;;3.50;99.90;;;;;;5115580;27;20235;-70
2022/03/01 05:25:06;;;;;;;9.43;6.73;;;3.60;99.90;;;;;;5095423;28;20194;-70
2022/03/01 05:27:32;;;;;;;10.00;7.07;;;3.50;99.90;;;;;;5089618;28;20284;-70
2022/03/01 05:30:00;;;;;;;10.03;6.90;;;3.50;99.90;;;;;;5086416;28;20253;-68
2022/03/01 05:32:32;;;;;;;7.73;6.03;;;3.50;99.90;;;;;;5087404;28;20207;-70
2022/03/01 05:35:02;;;;;;;8.57;6.50;;;3.50;99.90;;;;;;5070279;28;20192;-67
2022/03/01 05:37:27;;;;;;;10.20;6.90;;;3.50;99.90;;;;;;5089616;28;20199;-68
2022/03/01 05:39:53;;;;;;;8.67;6.03;;;3.50;99.90;;;;;;5077901;28;20215;-70
2022/03/01 05:42:19;;;;;;;7.13;5.20;;;3.50;99.90;;;;;;5076100;28;20175;-69
2022/03/01 05:44:44;;;;;;;9.67;5.67;;;3.50;99.90;;;;;;5086492;28;20178;-69
2022/03/01 05:47:10;;;;;;;9.97;5.70;;;3.50;99.90;;;;;;5119216;28;20215;-69
2022/03/01 05:49:38;;;;;;;7.13;5.67;;;3.50;99.90;;;;;;5124027;28;20179;-69
2022/03/01 05:52:05;;;;;;;10.17;5.90;;;3.50;99.90;;;;;;5091619;28;20608;-67
2022/03/01 05:54:31;;;;;;;10.20;6.23;;;3.60;99.90;;;;;;5085320;28;20175;-72
2022/03/01 05:56:56;;;;;;;9.27;6.30;;;3.60;99.90;;;;;;5089531;28;20199;-70
2022/03/01 05:59:27;;;;;;;8.43;6.43;;;3.60;99.90;;;;;;5117099;27;20254;-70
2022/03/01 06:01:52;;;;;;;7.63;5.37;;;3.60;99.90;;;;;;5066599;28;20236;-68
2022/03/01 06:04:21;;;;;;;9.50;6.40;;;3.60;99.90;;;;;;5112641;27;20184;-68
2022/03/01 06:06:48;;;;;;;8.17;6.13;;;3.60;99.90;;;;;;5080050;28;20480;-68
2022/03/01 06:09:14;;;;;;;7.33;5.10;;;3.60;99.90;;;;;;5116219;27;20183;-68
2022/03/01 06:11:40;;;;;;;8.87;6.10;;;3.60;99.90;;;;;;5087478;28;20216;-68
2022/03/01 06:14:05;;;;;;;8.63;6.20;;;3.60;99.90;;;;;;5130935;27;20179;-69
2022/03/01 06:16:34;;;;;;;10.40;6.67;;;3.70;99.90;;;;;;5085389;28;20213;-69
2022/03/01 06:19:07;;;;;;;8.97;6.20;;;3.70;99.90;;;;;;5079325;28;20179;-69
2022/03/01 06:21:32;;;;;;;9.43;6.57;;;3.70;99.90;;;;;;5112478;27;20176;-70
2022/03/01 06:24:00;;;;;;;9.07;6.30;;;3.80;99.90;;;;;;5081982;28;20281;-70
2022/03/01 06:26:27;;;;;;;7.17;5.93;;;3.80;99.90;;;;;;5116502;27;20183;-68
2022/03/01 06:28:56;;;;;;;10.13;6.30;;;3.80;99.90;;;;;;5090130;28;20184;-69
2022/03/01 06:31:22;;;;;;;7.97;5.80;;;3.90;99.90;;;;;;5113776;27;20271;-67
2022/03/01 06:33:47;;;;;;;7.53;5.87;;;3.90;99.90;;;;;;5084281;28;20295;-69
2022/03/01 06:36:13;;;;;;;7.90;6.00;;;4.00;99.90;;;;;;5105689;27;20214;-69
2022/03/01 06:38:39;;;;;;;10.20;6.10;;;4.00;99.90;;;;;;5114817;27;20447;-69
2022/03/01 06:41:07;;;;;;;6.63;5.30;;;4.10;99.90;;;;;;5088403;28;20200;-67
2022/03/01 06:43:35;;;;;;;7.90;5.43;;;4.10;99.90;;;;;;5116321;27;20184;-69
2022/03/01 06:46:03;;;;;;;8.23;5.67;;;4.20;99.90;;;;;;5076194;28;20236;-68
2022/03/01 06:48:30;;;;;;;8.20;5.70;;;4.20;99.90;;;;;;5079336;28;20268;-67
2022/03/01 06:50:55;;;;;;;7.07;5.20;;;4.30;99.90;;;;;;5076457;28;20241;-71
2022/03/01 06:53:21;;;;;;;7.87;5.63;;;4.30;99.90;;;;;;5121772;27;20180;-69
2022/03/01 06:55:49;;;;;;;8.20;5.57;;;4.30;99.90;;;;;;5081365;28;20207;-70
2022/03/01 06:58:17;;;;;;;7.40;5.40;;;4.40;99.90;;;;;;5082929;28;20219;-71
2022/03/01 07:00:42;;;;;;;9.73;5.27;;;4.40;99.90;;;;;;5112412;27;20176;-70
2022/03/01 07:03:08;;;;;;;8.40;5.83;;;4.50;99.90;;;;;;5116958;27;20195;-70
2022/03/01 07:05:36;;;;;;;8.30;5.30;;;4.50;99.90;;;;;;5067549;28;20180;-70
2022/03/01 07:08:03;;;;;;;10.90;6.83;;;4.50;99.90;;;;;;5114916;27;20248;-69
2022/03/01 07:10:28;;;;;;;7.47;5.43;;;4.60;99.90;;;;;;5081250;28;20263;-70
2022/03/01 07:12:59;;;;;;;7.47;5.67;;;4.60;99.90;;;;;;5112099;28;20504;-70
2022/03/01 07:15:25;;;;;;;7.67;5.63;;;4.70;99.90;;;;;;5129553;27;20176;-70
2022/03/01 07:17:50;;;;;;;8.07;5.80;;;4.70;99.90;;;;;;5096832;28;20186;-70
2022/03/01 07:20:16;;;;;;;7.90;5.60;;;4.80;99.90;;;;;;5071896;28;20169;-70
2022/03/01 07:22:42;;;;;;;7.60;5.67;;;4.90;99.90;;;;;;5105814;27;20187;-70
2022/03/01 07:25:08;;;;;;;7.13;5.03;;;4.90;99.90;;;;;;5102434;27;20303;-71
2022/03/01 07:27:34;;;;;;;8.47;5.60;;;5.00;99.90;;;;;;5086208;28;20203;-69
2022/03/01 07:29:59;;;;;;;6.80;5.13;;;5.10;99.90;;;;;;5075315;28;20212;-70
2022/03/01 07:32:25;;;;;;;8.53;5.50;;;5.10;99.90;;;;;;5114368;27;20279;-70
2022/03/01 07:34:51;;;;;;;8.37;5.50;;;5.20;99.90;;;;;;5115259;27;20192;-70
2022/03/01 07:37:17;;;;;;;7.30;5.27;;;5.20;99.90;;;;;;5113959;28;20214;-71
2022/03/01 07:39:43;;;;;;;7.03;5.30;;;5.30;99.90;;;;;;5065443;28;20286;-71
2022/03/01 07:42:09;;;;;;;9.33;5.70;;;5.30;99.90;;;;;;5110808;27;20247;-71
2022/03/01 07:44:37;;;;;;;10.40;6.50;;;5.40;99.90;;;;;;5117272;27;20179;-70
2022/03/01 07:47:11;;;;;;;8.17;5.43;;;5.40;99.90;;;;;;5114344;27;20275;-70
2022/03/01 07:49:36;;;;;;;7.50;5.53;;;5.40;99.90;;;;;;5113403;27;20188;-70
2022/03/01 07:52:05;;;;;;;10.57;7.20;;;5.50;99.90;;;;;;5082974;28;20255;-71
2022/03/01 07:54:33;;;;;;;8.23;5.70;;;5.50;99.90;;;;;;5122869;27;20179;-69
2022/03/01 07:57:01;;;;;;;9.13;5.87;;;5.50;99.90;;;;;;5093844;28;20286;-71
2022/03/01 07:59:26;;;;;;;9.07;6.17;;;5.50;99.90;;;;;;5089019;28;20206;-70
2022/03/01 08:01:52;;;;;;;9.43;6.07;;;5.60;99.90;;;;;;5080296;28;20168;-70
2022/03/01 08:04:19;;;;;;;7.23;5.40;;;5.60;99.90;;;;;;5124137;27;20178;-71
2022/03/01 08:06:49;;;;;;;7.93;5.47;;;5.60;99.90;;;;;;5091738;28;20218;-70
2022/03/01 08:09:16;;;;;;;8.30;5.73;;;5.60;99.90;;;;;;5091160;28;20184;-70
2022/03/01 08:11:44;;;;;;;7.47;5.30;;;5.60;99.90;;;;;;5094382;28;20206;-70
2022/03/01 08:14:10;;;;;;;8.17;5.23;;;5.70;99.90;;;;;;5094572;28;20207;-71
2022/03/01 08:16:38;;;;;;;7.83;5.30;;;5.70;99.90;;;;;;5077381;28;20249;-72
2022/03/01 08:19:11;;;;;;;8.30;5.27;;;5.80;99.90;;;;;;5077619;28;20172;-70
2022/03/01 08:21:38;;;;;;;8.73;5.70;;;5.80;99.90;;;;;;5078092;28;20179;-70
2022/03/01 08:24:04;;;;;;;9.13;5.43;;;5.80;99.90;;;;;;5096222;28;20183;-70
2022/03/01 08:26:30;;;;;;;8.57;5.83;;;5.90;99.90;;;;;;5081131;28;20207;-70
2022/03/01 08:28:56;;;;;;;8.43;5.53;;;5.90;99.90;;;;;;5115120;27;20188;-70
2022/03/01 08:31:22;;;;;;;9.87;5.87;;;6.00;99.90;;;;;;5114994;27;20190;-71
2022/03/01 08:33:47;;;;;;;9.27;6.07;;;6.00;99.90;;;;;;5077710;28;20180;-69
2022/03/01 08:36:20;;;;;;;8.50;6.03;;;6.10;99.90;;;;;;5077996;28;20489;-70
2022/03/01 08:38:48;;;;;;;8.07;5.67;;;6.10;99.90;;;;;;5106443;28;20191;-71
2022/03/01 08:41:18;;;;;;;7.60;5.70;;;6.10;99.90;;;;;;5112769;27;20164;-70
2022/03/01 08:43:44;;;;;;;7.90;5.77;;;6.20;99.90;;;;;;5110975;28;20268;-69
2022/03/01 08:46:14;;;;;;;7.87;5.57;;;6.20;99.90;;;;;;5067914;28;20183;-70
2022/03/01 08:48:40;;;;;;;8.10;5.83;;;6.20;99.90;;;;;;5081237;28;20183;-68
2022/03/01 08:51:06;;;;;;;9.43;5.90;;;6.30;99.90;;;;;;5085198;28;20259;-70
2022/03/01 08:53:33;;;;;;;8.10;5.97;;;6.30;99.90;;;;;;5114418;28;20222;-71
2022/03/01 08:55:59;;;;;;;9.27;6.30;;;6.30;99.90;;;;;;5079110;28;20233;-71
2022/03/01 08:58:27;;;;;;;9.70;6.13;;;6.40;99.90;;;;;;5080243;28;20169;-68
2022/03/01 09:00:55;;;;;;;8.03;5.67;;;6.50;99.90;;;;;;5107850;28;20190;-70
2022/03/01 09:03:23;;;;;;;8.00;5.20;;;6.50;99.90;;;;;;5111982;28;20171;-70
2022/03/01 09:05:52;;;;;;;7.43;5.50;;;6.60;99.90;;;;;;5061281;28;20181;-70
2022/03/01 09:08:19;;;;;;;9.03;5.33;;;6.70;99.90;;;;;;5062778;28;20184;-72
2022/03/01 09:10:47;;;;;;;8.40;5.30;;;6.80;99.90;;;;;;5120440;27;20203;-70
2022/03/01 09:13:18;;;;;;;8.20;6.30;;;6.90;99.90;;;;;;5078784;28;20185;-71
2022/03/01 09:15:46;;;;;;;9.23;5.53;;;6.90;99.90;;;;;;5097790;28;20231;-70
2022/03/01 09:18:12;;;;;;;7.50;5.30;;;7.00;99.90;;;;;;5096836;28;20194;-70
2022/03/01 09:20:40;;;;;;;7.93;5.67;;;7.20;99.90;;;;;;5069418;28;20173;-70
2022/03/01 09:23:07;;;;;;;8.97;6.17;;;7.30;99.90;;;;;;5099717;28;20187;-70
2022/03/01 09:25:33;;;;;;;8.90;5.93;;;7.40;99.90;;;;;;5084567;28;20175;-69
2022/03/01 09:28:01;;;;;;;8.53;6.30;;;7.50;99.90;;;;;;5094404;28;20183;-71
2022/03/01 09:30:27;;;;;;;9.90;6.60;;;7.70;99.90;;;;;;5095840;28;20244;-71
2022/03/01 09:32:53;;;;;;;9.33;6.63;;;7.80;99.90;;;;;;5089963;28;20171;-71
2022/03/01 09:35:18;;;;;;;9.27;6.40;;;7.90;99.90;;;;;;5083728;28;20224;-72
2022/03/01 09:37:44;;;;;;;8.73;5.90;;;7.90;99.90;;;;;;5110109;28;20221;-72
2022/03/01 09:40:11;;;;;;;9.23;5.93;;;8.10;99.90;;;;;;5134119;27;20236;-70
2022/03/01 09:42:38;;;;;;;9.53;7.40;;;8.20;99.90;;;;;;5100996;28;20429;-69
2022/03/01 09:45:07;;;;;;;10.57;7.37;;;8.30;99.20;;;;;;5085976;28;20189;-70
2022/03/01 09:47:33;;;;;;;10.40;7.00;;;8.40;99.90;;;;;;5112931;27;20291;-70
2022/03/01 09:49:59;;;;;;;11.30;7.30;;;8.40;98.80;;;;;;5118199;27;20188;-71
2022/03/01 09:52:27;;;;;;;9.57;6.50;;;8.40;98.80;;;;;;5114371;28;20191;-70
2022/03/01 09:54:53;;;;;;;9.23;6.60;;;8.40;98.40;;;;;;5080107;28;20382;-70
2022/03/01 09:57:19;;;;;;;9.00;5.53;;;8.40;99.90;;;;;;5123008;27;20221;-70
2022/03/01 09:59:48;;;;;;;8.10;5.97;;;8.40;99.90;;;;;;5117742;27;20287;-70
2022/03/01 10:02:14;;;;;;;7.67;5.50;;;8.40;99.90;;;;;;5115117;28;20270;-71
2022/03/01 10:05:06;;;;;;;10.30;5.90;;;8.30;99.90;;;;;;5081220;28;20192;-68
2022/03/01 10:07:32;;;;;;;9.10;6.10;;;8.30;98.70;;;;;;5079953;28;20295;-70
2022/03/01 10:10:08;;;;;;;9.50;6.40;;;8.30;99.90;;;;;;5123596;27;20177;-71
2022/03/01 10:12:36;;;;;;;10.07;6.50;;;8.20;98.10;;;;;;5092054;28;20226;-69
2022/03/01 10:15:14;;;;;;;8.43;5.57;;;8.20;99.40;;;;;;5062731;28;20245;-70
2022/03/01 10:17:45;;;;;;;9.50;6.00;;;8.10;98.90;;;;;;5096204;28;20203;-71
2022/03/01 10:20:18;;;;;;;8.93;6.00;;;8.10;98.80;;;;;;5089893;28;20221;-70
2022/03/01 10:22:45;;;;;;;8.43;5.90;;;8.10;97.40;;;;;;5122014;27;20228;-70
2022/03/01 10:25:12;;;;;;;8.77;5.37;;;8.20;99.90;;;;;;5097287;28;20187;-70
2022/03/01 10:27:42;;;;;;;7.83;5.77;;;8.40;99.90;;;;;;5063024;28;20267;-70
2022/03/01 10:30:10;;;;;;;7.70;5.60;;;8.50;99.60;;;;;;5112254;28;20306;-69
2022/03/01 10:32:36;;;;;;;9.57;5.90;;;8.70;99.90;;;;;;5122691;27;20187;-70
2022/03/01 10:35:09;;;;;;;8.60;5.80;;;9.00;99.90;;;;;;5083834;28;20274;-69
2022/03/01 10:37:40;;;;;;;8.70;6.17;;;9.20;98.20;;;;;;5114075;28;20304;-70
2022/03/01 10:40:22;;;;;;;8.63;6.10;;;9.50;98.80;;;;;;5080075;28;20217;-70
2022/03/01 10:43:09;;;;;;;7.90;5.60;;;9.80;97.60;;;;;;5073873;28;20190;-71
2022/03/01 10:45:37;;;;;;;7.00;5.60;;;10.10;95.20;;;;;;5111724;27;20176;-71
2022/03/01 10:48:04;;;;;;;7.20;5.17;;;10.40;98.80;;;;;;5099381;28;20186;-71
2022/03/01 10:50:33;;;;;;;8.93;5.90;;;10.70;99.70;;;;;;5096652;28;20180;-71
2022/03/01 10:53:02;;;;;;;7.60;5.25;;;10.90;97.70;;;;;;5078912;28;20176;-70
2022/03/01 10:55:34;;;;;;;7.35;5.15;;;11.10;97.60;;;;;;5075006;28;20196;-71
2022/03/01 10:58:08;;;;;;;7.70;5.72;;;11.30;94.10;;;;;;5069437;28;20258;-70
2022/03/01 11:00:38;;;;;;;8.75;5.50;;;11.50;95.30;;;;;;5086191;28;20176;-70
2022/03/01 11:03:07;;;;;;;8.18;5.82;;;11.70;97.00;;;;;;5088268;28;20209;-71
2022/03/01 11:05:38;;;;;;;6.75;5.43;;;11.80;95.90;;;;;;5092544;28;20215;-70
2022/03/01 11:08:08;;;;;;;7.53;5.35;;;11.90;97.10;;;;;;5064623;28;20172;-70
2022/03/01 11:10:36;;;;;;;7.03;5.40;;;12.10;97.70;;;;;;5118995;27;20183;-71
2022/03/01 11:13:05;;;;;;;9.00;5.65;;;12.30;96.60;;;;;;5095096;28;20199;-71
2022/03/01 11:16:08;;;;;;;7.80;5.97;;;12.50;95.20;;;;;;5097688;28;20175;-71
2022/03/01 11:18:50;;;;;;;6.75;5.30;;;12.80;87.10;;;;;;5095980;28;20183;-70
2022/03/01 11:21:23;;;;;;;7.85;5.63;;;13.00;85.60;;;;;;5078721;28;20204;-70
2022/03/01 11:23:53;;;;;;;6.75;5.20;;;13.10;92.10;;;;;;5114254;27;20229;-67
2022/03/01 11:26:19;;;;;;;9.05;6.03;;;13.10;91.70;;;;;;5119797;27;20176;-68
2022/03/01 11:28:58;;;;;;;7.57;5.63;;;13.10;86.50;;;;;;5113373;27;20303;-71
2022/03/01 11:31:30;;;;;;;7.43;5.25;;;13.00;80.20;;;;;;5097527;28;20275;-70
2022/03/01 11:34:01;;;;;;;8.60;6.10;;;12.80;83.90;;;;;;5084426;28;20176;-71
2022/03/01 11:36:33;;;;;;;9.88;5.95;;;12.60;75.20;;;;;;5086522;28;20200;-71
2022/03/01 11:39:17;;;;;;;8.98;5.80;;;12.40;72.80;;;;;;5081705;28;20290;-71
2022/03/01 11:41:45;;;;;;;6.97;5.50;;;12.20;60.20;;;;;;5122014;27;20199;-71
2022/03/01 11:44:15;;;;;;;10.02;6.57;;;12.00;77.10;;;;;;5080447;28;20188;-70
2022/03/01 11:46:43;;;;;;;7.15;5.25;;;11.80;70.50;;;;;;5073158;28;20172;-70
2022/03/01 11:49:14;;;;;;;6.78;5.10;;;11.70;75.40;;;;;;5081348;28;20172;-71
2022/03/01 11:51:47;;;;;;;6.13;4.63;;;11.70;79.10;;;;;;5079486;28;20176;-71
2022/03/01 11:54:18;;;;;;;7.13;4.72;;;11.60;82.50;;;;;;5086376;28;20175;-71
2022/03/01 11:56:44;;;;;;;6.97;4.88;;;11.60;80.10;;;;;;5074233;28;20227;-71
2022/03/01 11:59:12;;;;;;;6.85;5.55;;;11.60;82.70;;;;;;5114859;27;20198;-71
2022/03/01 12:01:41;;;;;;;7.85;5.50;;;11.60;76.10;;;;;;5088145;28;20191;-71
2022/03/01 12:04:08;;;;;;;10.73;5.45;;;11.60;79.30;;;;;;5095704;28;20171;-70
2022/03/01 12:06:40;;;;;;;9.18;5.28;;;11.60;78.10;;;;;;5093911;28;20176;-71
2022/03/01 12:09:08;;;;;;;7.35;5.10;;;11.60;79.20;;;;;;5078976;28;20194;-71
2022/03/01 12:11:44;;;;;;;6.82;5.03;;;11.60;77.30;;;;;;5084790;28;20283;-71
2022/03/01 12:14:14;;;;;;;8.65;5.18;;;11.60;80.40;;;;;;5089451;28;20203;-70
2022/03/01 12:16:41;;;;;;;7.70;5.78;;;11.50;78.60;;;;;;5080179;28;20191;-70
2022/03/01 12:19:13;;;;;;;7.70;4.88;;;11.60;78.50;;;;;;5122931;27;20255;-68
2022/03/01 12:21:45;;;;;;;7.10;5.20;;;11.60;76.00;;;;;;5084183;28;20179;-70
2022/03/01 12:24:13;;;;;;;6.63;4.38;;;11.60;81.50;;;;;;5119300;27;20321;-69
2022/03/01 12:26:51;;;;;;;7.10;4.85;;;11.60;85.20;;;;;;5112731;27;20175;-68
2022/03/01 12:29:21;;;;;;;6.50;4.45;;;11.70;82.40;;;;;;5062456;28;20188;-71
2022/03/01 12:31:58;;;;;;;6.38;4.43;;;11.80;83.90;;;;;;5110177;27;20291;-71
2022/03/01 12:34:27;;;;;;;5.57;4.10;;;11.90;80.50;;;;;;5117294;27;20202;-71
2022/03/01 12:37:00;;;;;;;5.63;4.30;;;12.00;85.30;;;;;;5079337;28;20199;-69
2022/03/01 12:39:28;;;;;;;7.75;5.40;;;12.00;83.40;;;;;;5070737;28;20200;-69
2022/03/01 12:41:55;;;;;;;6.88;4.93;;;12.10;85.80;;;;;;5092661;28;20399;-71
2022/03/01 12:44:27;;;;;;;7.70;5.05;;;12.10;83.30;;;;;;5086907;28;20180;-69
2022/03/01 12:46:59;;;;;;;10.30;4.50;;;12.10;84.10;;;;;;5083636;28;20190;-70
2022/03/01 12:49:25;;;;;;;6.88;4.72;;;12.10;83.90;;;;;;5094380;28;20246;-70
2022/03/01 12:51:53;;;;;;;8.35;5.30;;;12.10;86.20;;;;;;5080657;28;20211;-71
2022/03/01 12:54:27;;;;;;;9.45;5.97;;;12.10;84.40;;;;;;5076906;28;20184;-71
2022/03/01 12:56:57;;;;;;;7.82;5.68;;;12.20;75.70;;;;;;5087606;28;20295;-71
2022/03/01 12:59:28;;;;;;;6.88;5.43;;;12.20;79.30;;;;;;5114168;28;20237;-71
2022/03/01 13:01:59;;;;;;;9.63;5.65;;;12.20;79.50;;;;;;5077061;28;20176;-70